KCBF/CBF METAR and TAF weather

Enter ICAO airport designator
Station Type Date Time Source
KCBF METAR 2022/11/30 18:15 UTC NOAA

KCBF 301815Z AUTO 28013G19KT 10SM CLR M05/M14 A3033 RMK AO2


Station Type Date Time Source
KCBF Decoded METAR 2022/11/30 18:15 UTC NOAA

Council Bluffs, IA, United States (KCBF) 41-16N 095-46W
Nov 30, 2022 - 01:15 PM EST / 2022.11.30 1815 UTC
Wind: from the W (280 degrees) at 15 MPH (13 KT) gusting to 22 MPH (19 KT):0
Visibility: 10 mile(s):0
Sky conditions: clear
Temperature: 23 F (-5 C)
Windchill: 10 F (-12 C):1
Dew Point: 6 F (-14 C)
Relative Humidity: 49%
Pressure (altimeter): 30.33 in. Hg (1027 hPa)
ob: KCBF 301815Z AUTO 28013G19KT 10SM CLR M05/M14 A3033 RMK AO2
cycle: 18

Station Type Date Time Source
KCBF TAF UTC NOAA

Error!

Example: see airport list